.
WxDataArchive / Data Records for 2012-12-21
2012-12-20 December 2012 2012-12-22

Data Records for Friday, 21 December 2012

Time	Temp	Chill	HIndex	Humid	Dewpt	 Wind 	HiWind	WindDir	Rain 	Barom 
-----	----	-----	------	-----	-----	------	------	-------	-----	----- 
00:00	34.0	34.0	34.0	92	31.9	3	7	248	0.00	29.195 
00:05	34.0	34.0	34.0	92	31.9	2	6	248	0.00	29.195 
00:10	34.1	34.1	34.1	92	32.0	3	6	248	0.00	29.195 
00:15	34.3	34.3	34.3	92	32.2	3	8	248	0.00	29.194 
00:20	34.4	34.4	34.4	92	32.3	3	11	248	0.01	29.194 
00:25	34.4	30.8	34.4	92	32.3	4	9	248	0.00	29.194 
00:30	34.4	34.4	34.4	92	32.3	3	7	248	0.00	29.196 
00:35	34.3	30.7	34.3	92	32.2	4	10	248	0.01	29.196 
00:40	34.3	34.3	34.3	92	32.2	3	10	248	0.00	29.196 
00:45	34.1	29.5	34.1	92	32.0	5	13	248	0.00	29.198 
00:50	34.1	34.1	34.1	92	32.0	3	9	248	0.00	29.198 
00:55	34.1	30.5	34.1	92	32.0	4	12	248	0.00	29.198 
01:00	34.1	30.5	34.1	92	32.0	4	12	248	0.01	29.202 
01:05	34.1	30.5	34.1	92	32.0	4	12	248	0.00	29.202 
01:10	34.0	30.4	34.0	92	31.9	4	10	248	0.00	29.202 
01:15	33.8	29.2	33.8	92	31.7	5	10	270	0.00	29.206 
01:20	33.7	30.0	33.7	92	31.6	4	11	248	0.00	29.206 
01:25	33.7	29.1	33.7	92	31.6	5	11	248	0.00	29.206 
01:30	33.7	30.0	33.7	92	31.6	4	12	248	0.00	29.213 
01:35	33.5	28.8	33.5	92	31.4	5	13	248	0.00	29.213 
01:40	33.5	28.8	33.5	92	31.4	5	13	248	0.00	29.213 
01:45	33.4	29.7	33.4	92	31.3	4	11	248	0.00	29.217 
01:50	33.4	28.7	33.4	92	31.3	5	12	248	0.00	29.217 
01:55	33.4	29.7	33.4	92	31.3	4	13	248	0.00	29.217 
02:00	33.4	28.7	33.4	92	31.3	5	14	248	0.01	29.218 
02:05	33.4	27.9	33.4	92	31.3	6	15	248	0.00	29.218 
02:10	33.4	28.7	33.4	92	31.3	5	11	248	0.00	29.218 
02:15	33.4	28.7	33.4	92	31.3	5	12	248	0.00	29.218 
02:20	33.4	28.7	33.4	92	31.3	5	13	248	0.00	29.218 
02:25	33.2	28.5	33.2	92	31.1	5	11	248	0.00	29.218 
02:30	33.2	26.9	33.2	92	31.1	7	17	248	0.00	29.219 
02:35	33.2	28.5	33.2	92	31.1	5	12	248	0.00	29.219 
02:40	33.2	28.5	33.2	92	31.1	5	11	248	0.00	29.219 
02:45	33.2	28.5	33.2	92	31.1	5	12	248	0.00	29.224 
02:50	33.2	28.5	33.2	92	31.1	5	16	248	0.00	29.224 
02:55	33.1	27.5	33.1	92	31.0	6	12	248	0.00	29.224 
03:00	33.1	28.4	33.1	92	31.0	5	12	270	0.00	29.231 
03:05	32.9	29.1	32.9	93	31.1	4	10	248	0.00	29.231 
03:10	32.9	29.1	32.9	93	31.1	4	11	248	0.00	29.231 
03:15	32.9	27.3	32.9	93	31.1	6	15	270	0.00	29.232 
03:20	32.9	27.3	32.9	93	31.1	6	14	270	0.00	29.232 
03:25	32.9	26.6	32.9	93	31.1	7	17	270	0.00	29.232 
03:30	33.1	26.2	33.1	93	31.3	8	19	270	0.00	29.237 
03:35	33.1	28.4	33.1	93	31.3	5	10	270	0.00	29.237 
03:40	33.1	28.4	33.1	93	31.3	5	11	270	0.00	29.237 
03:45	33.1	28.4	33.1	93	31.3	5	16	270	0.00	29.249 
03:50	33.2	28.5	33.2	94	31.7	5	10	270	0.01	29.249 
03:55	33.4	28.7	33.4	94	31.9	5	10	270	0.00	29.249 
04:00	33.5	28.8	33.5	94	32.0	5	11	270	0.00	29.271 
04:05	33.5	28.8	33.5	94	32.0	5	13	270	0.00	29.271 
04:10	33.7	28.3	33.7	94	32.2	6	12	270	0.00	29.271 
04:15	33.8	29.2	33.8	94	32.3	5	11	270	0.00	29.287 
04:20	33.8	29.2	33.8	94	32.3	5	7	270	0.01	29.287 
04:25	34.0	29.4	34.0	94	32.5	5	11	270	0.00	29.287 
04:30	34.0	30.4	34.0	94	32.5	4	9	270	0.00	29.303 
04:35	34.0	29.4	34.0	93	32.2	5	7	270	0.00	29.303 
04:40	33.8	30.2	33.8	93	32.0	4	10	270	0.00	29.303 
04:45	33.8	29.2	33.8	93	32.0	5	9	270	0.00	29.316 
04:50	33.8	29.2	33.8	93	32.0	5	9	270	0.01	29.316 
04:55	33.8	30.2	33.8	93	32.0	4	7	270	0.00	29.316 
05:00	33.8	29.2	33.8	93	32.0	5	12	270	0.00	29.334 
05:05	33.7	30.0	33.7	93	31.9	4	9	270	0.00	29.334 
05:10	33.7	33.7	33.7	93	31.9	3	5	270	0.00	29.334 
05:15	33.7	30.0	33.7	93	31.9	4	10	270	0.00	29.349 
05:20	33.7	33.7	33.7	93	31.9	3	7	248	0.00	29.349 
05:25	33.7	29.1	33.7	93	31.9	5	11	270	0.00	29.349 
05:30	33.7	29.1	33.7	92	31.6	5	12	270	0.00	29.363 
05:35	33.7	29.1	33.7	92	31.6	5	11	270	0.00	29.363 
05:40	33.7	30.0	33.7	92	31.6	4	11	292	0.00	29.363 
05:45	33.7	29.1	33.7	92	31.6	5	10	270	0.01	29.376 
05:50	33.7	30.0	33.7	92	31.6	4	11	270	0.00	29.376 
05:55	33.7	29.1	33.7	92	31.6	5	12	270	0.00	29.376 
06:00	33.7	30.0	33.7	92	31.6	4	10	270	0.00	29.385 
06:05	33.7	30.0	33.7	92	31.6	4	10	270	0.00	29.385 
06:10	33.7	30.0	33.7	92	31.6	4	10	270	0.00	29.385 
06:15	33.5	33.5	33.5	92	31.4	3	8	292	0.00	29.400 
06:20	33.7	29.1	33.7	92	31.6	5	12	270	0.00	29.400 
06:25	33.7	30.0	33.7	92	31.6	4	11	270	0.00	29.400 
06:30	33.7	30.0	33.7	91	31.4	4	10	270	0.00	29.411 
06:35	33.8	29.2	33.8	91	31.5	5	14	292	0.00	29.411 
06:40	33.8	29.2	33.8	90	31.2	5	12	270	0.00	29.411 
06:45	33.8	30.2	33.8	90	31.2	4	7	270	0.00	29.422 
06:50	33.7	30.0	33.7	91	31.4	4	10	292	0.00	29.422 
06:55	33.5	29.8	33.5	91	31.2	4	13	315	0.00	29.422 
07:00	33.5	29.8	33.5	91	31.2	4	7	270	0.00	29.437 
07:05	33.5	29.8	33.5	91	31.2	4	9	315	0.00	29.437 
07:10	33.5	33.5	33.5	91	31.2	3	10	270	0.00	29.437 
07:15	33.5	28.8	33.5	90	30.9	5	11	315	0.00	29.451 
07:20	33.7	28.3	33.7	89	30.8	6	13	270	0.00	29.451 
07:25	33.8	28.4	33.8	88	30.6	6	17	292	0.00	29.451 
07:30	34.0	29.4	34.0	86	30.3	5	11	315	0.00	29.464 
07:35	34.0	29.4	34.0	85	30.0	5	12	292	0.00	29.464 
07:40	34.1	29.5	34.1	84	29.8	5	14	315	0.00	29.464 
07:45	34.1	34.1	34.1	84	29.8	3	9	292	0.00	29.476 
07:50	34.1	30.5	34.1	84	29.8	4	12	315	0.00	29.476 
07:55	34.1	30.5	34.1	84	29.8	4	9	338	0.00	29.476 
08:00	33.8	33.8	33.8	85	29.8	3	7	315	0.00	29.494 
08:05	33.5	33.5	33.5	87	30.1	2	6	315	0.00	29.494 
08:10	33.4	33.4	33.4	88	30.2	3	7	315	0.00	29.494 
08:15	33.2	33.2	33.2	89	30.3	2	6	270	0.00	29.503 
08:20	33.1	33.1	33.1	90	30.5	3	7	248	0.00	29.503 
08:25	33.2	33.2	33.2	90	30.6	3	7	315	0.00	29.503 
08:30	33.2	33.2	33.2	90	30.6	3	5	315	0.00	29.513 
08:35	33.4	33.4	33.4	90	30.8	2	9	270	0.00	29.513 
08:40	33.2	33.2	33.2	90	30.6	2	4	248	0.00	29.513 
08:45	33.2	33.2	33.2	91	30.9	2	5	315	0.00	29.517 
08:50	33.1	33.1	33.1	91	30.8	2	5	315	0.00	29.517 
08:55	33.1	33.1	33.1	91	30.8	3	10	338	0.00	29.517 
09:00	32.9	32.9	32.9	91	30.6	3	7	315	0.00	29.531 
09:05	32.9	32.9	32.9	92	30.8	2	4	292	0.00	29.531 
09:10	32.9	32.9	32.9	92	30.8	3	6	270	0.00	29.531 
09:15	32.8	32.8	32.8	92	30.7	2	9	315	0.00	29.544 
09:20	32.7	32.7	32.7	92	30.6	3	7	270	0.00	29.544 
09:25	32.7	32.7	32.7	92	30.6	2	6	315	0.00	29.544 
09:30	32.7	32.7	32.7	92	30.6	2	4	315	0.00	29.547 
09:35	32.7	32.7	32.7	92	30.6	3	9	270	0.00	29.547 
09:40	32.7	32.7	32.7	92	30.6	3	8	315	0.00	29.547 
09:45	32.7	32.7	32.7	92	30.6	3	7	270	0.00	29.555 
09:50	32.7	28.9	32.7	92	30.6	4	10	270	0.00	29.555 
09:55	32.8	32.8	32.8	92	30.7	3	10	315	0.00	29.555 
10:00	32.8	29.0	32.8	92	30.7	4	10	292	0.00	29.564 
10:05	32.9	29.1	32.9	91	30.6	4	10	270	0.00	29.564 
10:10	32.9	29.1	32.9	90	30.3	4	10	270	0.00	29.564 
10:15	33.1	29.3	33.1	89	30.2	4	11	292	0.00	29.581 
10:20	33.2	28.5	33.2	88	30.0	5	11	315	0.00	29.581 
10:25	33.4	29.7	33.4	87	30.0	4	12	270	0.00	29.581 
10:30	33.4	29.7	33.4	86	29.7	4	10	270	0.00	29.590 
10:35	33.5	28.8	33.5	85	29.5	5	12	270	0.00	29.590 
10:40	33.5	28.8	33.5	84	29.2	5	15	292	0.00	29.590 
10:45	33.5	28.0	33.5	84	29.2	6	14	292	0.00	29.595 
10:50	33.5	29.8	33.5	84	29.2	4	9	270	0.00	29.595 
10:55	33.5	28.8	33.5	84	29.2	5	11	270	0.00	29.595 
11:00	33.5	28.8	33.5	84	29.2	5	10	270	0.00	29.599 
11:05	33.8	30.2	33.8	82	28.9	4	10	292	0.00	29.599 
11:10	34.0	29.4	34.0	81	28.8	5	17	270	0.00	29.599 
11:15	34.1	30.5	34.1	81	28.9	4	15	315	0.01	29.608 
11:20	34.3	30.7	34.3	81	29.1	4	11	270	0.00	29.608 
11:25	34.4	29.1	34.4	79	28.6	6	13	315	0.00	29.608 
11:30	34.4	29.9	34.4	78	28.3	5	13	270	0.00	29.610 
11:35	34.4	29.9	34.4	78	28.3	5	13	315	0.00	29.610 
11:40	34.6	31.1	34.6	78	28.5	4	12	338	0.00	29.610 
11:45	34.6	31.1	34.6	78	28.5	4	13	292	0.00	29.618 
11:50	34.6	31.1	34.6	78	28.5	4	11	315	0.00	29.618 
11:55	34.6	31.1	34.6	78	28.5	4	11	270	0.01	29.618 
12:00	34.4	30.8	34.4	79	28.6	4	10	270	0.00	29.624 
12:05	34.3	29.8	34.3	79	28.5	5	11	270	0.00	29.624 
12:10	34.1	30.5	34.1	80	28.6	4	7	270	0.00	29.624 
12:15	34.0	28.6	34.0	81	28.8	6	12	270	0.00	29.628 
12:20	34.0	30.4	34.0	81	28.8	4	11	315	0.00	29.628 
12:25	33.8	30.2	33.8	81	28.6	4	12	292	0.00	29.628 
12:30	33.8	29.2	33.8	81	28.6	5	12	292	0.00	29.636 
12:35	33.8	29.2	33.8	81	28.6	5	11	270	0.00	29.636 
12:40	33.7	28.3	33.7	81	28.5	6	14	270	0.00	29.636 
12:45	33.7	29.1	33.7	81	28.5	5	12	270	0.00	29.641 
12:50	33.5	28.8	33.5	81	28.3	5	17	315	0.00	29.641 
12:55	33.5	28.8	33.5	81	28.3	5	12	270	0.00	29.641 
13:00	33.5	28.8	33.5	81	28.3	5	12	270	0.01	29.649 
13:05	33.7	29.1	33.7	81	28.5	5	13	315	0.00	29.649 
13:10	33.7	29.1	33.7	80	28.2	5	15	315	0.00	29.649 
13:15	33.7	29.1	33.7	80	28.2	5	9	315	0.00	29.658 
13:20	33.7	29.1	33.7	81	28.5	5	12	270	0.00	29.658 
13:25	33.7	30.0	33.7	81	28.5	4	10	292	0.00	29.658 
13:30	33.7	28.3	33.7	81	28.5	6	12	292	0.00	29.664 
13:35	33.8	30.2	33.8	81	28.6	4	9	292	0.00	29.664 
13:40	34.0	30.4	34.0	81	28.8	4	12	338	0.00	29.664 
13:45	34.0	30.4	34.0	81	28.8	4	10	292	0.00	29.675 
13:50	34.1	29.5	34.1	81	28.9	5	9	315	0.00	29.675 
13:55	34.1	29.5	34.1	82	29.2	5	11	270	0.00	29.675 
14:00	34.1	30.5	34.1	80	28.6	4	12	270	0.00	29.679 
14:05	34.3	30.7	34.3	81	29.1	4	7	315	0.00	29.679 
14:10	34.1	30.5	34.1	81	28.9	4	7	315	0.00	29.679 
14:15	33.8	30.2	33.8	82	28.9	4	13	270	0.00	29.689 
14:20	33.7	30.0	33.7	83	29.1	4	10	270	0.00	29.689 
14:25	33.7	30.0	33.7	83	29.1	4	10	315	0.00	29.689 
14:30	33.7	29.1	33.7	83	29.1	5	12	338	0.01	29.701 
14:35	33.7	30.0	33.7	83	29.1	4	9	270	0.00	29.701 
14:40	33.8	30.2	33.8	82	28.9	4	10	315	0.00	29.701 
14:45	34.0	30.4	34.0	81	28.8	4	11	270	0.00	29.707 
14:50	34.0	30.4	34.0	80	28.5	4	9	292	0.00	29.707 
14:55	34.1	30.5	34.1	79	28.3	4	10	338	0.00	29.707 
15:00	34.3	30.7	34.3	79	28.5	4	11	315	0.00	29.720 
15:05	34.3	30.7	34.3	78	28.2	4	10	315	0.00	29.720 
15:10	34.3	30.7	34.3	78	28.2	4	12	315	0.00	29.720 
15:15	34.3	30.7	34.3	77	27.9	4	9	270	0.00	29.734 
15:20	34.4	29.9	34.4	77	27.9	5	12	292	0.00	29.734 
15:25	34.6	31.1	34.6	77	28.1	4	10	270	0.00	29.734 
15:30	34.6	30.1	34.6	76	27.8	5	13	292	0.00	29.746 
15:35	34.7	31.2	34.7	75	27.6	4	9	270	0.00	29.746 
15:40	34.7	29.4	34.7	75	27.6	6	15	270	0.00	29.746 
15:45	34.7	29.4	34.7	75	27.6	6	14	292	0.00	29.757 
15:50	34.7	31.2	34.7	75	27.6	4	10	270	0.00	29.757 
15:55	34.7	31.2	34.7	76	27.9	4	9	270	0.00	29.757 
16:00	34.6	30.1	34.6	76	27.8	5	11	315	0.00	29.772 
16:05	34.4	29.9	34.4	77	27.9	5	11	338	0.00	29.772 
16:10	34.1	34.1	34.1	79	28.3	3	9	315	0.00	29.772 
16:15	34.0	34.0	34.0	80	28.5	3	10	338	0.00	29.784 
16:20	33.8	33.8	33.8	80	28.3	3	7	338	0.00	29.784 
16:25	33.8	33.8	33.8	80	28.3	3	7	315	0.00	29.784 
16:30	34.0	30.4	34.0	80	28.5	4	10	315	0.00	29.794 
16:35	33.8	30.2	33.8	80	28.3	4	10	270	0.00	29.794 
16:40	34.0	30.4	34.0	79	28.2	4	12	315	0.00	29.794 
16:45	34.0	34.0	34.0	80	28.5	3	7	270	0.00	29.802 
16:50	33.8	33.8	33.8	81	28.6	3	7	315	0.00	29.802 
16:55	33.5	33.5	33.5	82	28.6	3	7	292	0.00	29.802 
17:00	33.2	29.5	33.2	83	28.6	4	11	315	0.00	29.816 
17:05	33.1	33.1	33.1	84	28.8	3	9	315	0.00	29.816 
17:10	32.9	32.9	32.9	84	28.6	3	9	315	0.00	29.816 
17:15	32.9	29.1	32.9	84	28.6	4	7	292	0.00	29.830 
17:20	32.9	29.1	32.9	84	28.6	4	7	248	0.00	29.830 
17:25	32.9	29.1	32.9	84	28.6	4	11	270	0.00	29.830 
17:30	32.9	29.1	32.9	83	28.3	4	11	315	0.00	29.835 
17:35	32.9	32.9	32.9	84	28.6	3	6	248	0.00	29.835 
17:40	32.8	29.0	32.8	84	28.5	4	7	270	0.00	29.835 
17:45	32.9	29.1	32.9	83	28.3	4	11	270	0.00	29.849 
17:50	32.9	32.9	32.9	82	28.0	3	7	270	0.00	29.849 
17:55	33.1	27.5	33.1	81	27.9	6	13	270	0.00	29.849 
18:00	33.2	29.5	33.2	80	27.7	4	9	292	0.00	29.862 
18:05	33.2	33.2	33.2	80	27.7	3	7	270	0.00	29.862 
18:10	33.2	29.5	33.2	80	27.7	4	12	270	0.00	29.862 
18:15	33.4	28.7	33.4	79	27.6	5	12	292	0.00	29.872 
18:20	33.4	29.7	33.4	79	27.6	4	9	270	0.00	29.872 
18:25	33.4	29.7	33.4	79	27.6	4	7	292	0.00	29.872 
18:30	33.4	28.7	33.4	78	27.3	5	13	270	0.00	29.880 
18:35	33.4	33.4	33.4	78	27.3	3	7	248	0.00	29.880 
18:40	33.4	29.7	33.4	78	27.3	4	13	315	0.00	29.880 
18:45	33.4	28.7	33.4	78	27.3	5	12	270	0.00	29.892 
18:50	33.4	33.4	33.4	78	27.3	3	7	248	0.00	29.892 
18:55	33.2	33.2	33.2	79	27.4	3	7	292	0.00	29.892 
19:00	33.2	33.2	33.2	79	27.4	3	10	292	0.00	29.897 
19:05	33.2	29.5	33.2	79	27.4	4	7	292	0.00	29.897 
19:10	33.2	33.2	33.2	78	27.1	3	7	270	0.00	29.897 
19:15	33.4	29.7	33.4	78	27.3	4	10	315	0.00	29.907 
19:20	33.4	29.7	33.4	77	27.0	4	10	270	0.00	29.907 
19:25	33.4	33.4	33.4	77	27.0	3	9	315	0.00	29.907 
19:30	33.4	33.4	33.4	77	27.0	2	6	292	0.00	29.913 
19:35	33.4	28.7	33.4	77	27.0	5	11	270	0.00	29.913 
19:40	33.4	29.7	33.4	77	27.0	4	11	292	0.00	29.913 
19:45	33.4	33.4	33.4	78	27.3	3	7	292	0.00	29.923 
19:50	33.2	33.2	33.2	77	26.8	3	6	315	0.00	29.923 
19:55	33.4	33.4	33.4	77	27.0	3	6	292	0.00	29.923 
20:00	33.5	29.8	33.5	77	27.1	4	10	315	0.00	29.933 
20:05	33.5	33.5	33.5	77	27.1	2	7	292	0.00	29.933 
20:10	33.5	33.5	33.5	77	27.1	2	5	315	0.00	29.933 
20:15	33.5	33.5	33.5	77	27.1	2	5	270	0.00	29.940 
20:20	33.5	33.5	33.5	77	27.1	3	6	315	0.00	29.940 
20:25	33.5	33.5	33.5	77	27.1	3	7	270	0.00	29.940 
20:30	33.4	33.4	33.4	77	27.0	2	7	270	0.00	29.950 
20:35	33.4	33.4	33.4	78	27.3	2	7	248	0.00	29.950 
20:40	33.2	33.2	33.2	78	27.1	3	5	270	0.00	29.950 
20:45	33.2	33.2	33.2	78	27.1	3	6	315	0.00	29.953 
20:50	33.4	33.4	33.4	78	27.3	3	6	270	0.00	29.953 
20:55	33.2	33.2	33.2	78	27.1	2	5	338	0.00	29.953 
21:00	33.2	33.2	33.2	78	27.1	2	5	270	0.00	29.958 
21:05	33.2	33.2	33.2	78	27.1	2	4	338	0.00	29.958 
21:10	33.2	33.2	33.2	78	27.1	2	5	315	0.00	29.958 
21:15	33.1	33.1	33.1	78	27.0	2	4	338	0.00	29.961 
21:20	33.1	33.1	33.1	78	27.0	3	7	315	0.00	29.961 
21:25	33.2	33.2	33.2	77	26.8	3	11	338	0.00	29.961 
21:30	33.2	33.2	33.2	77	26.8	3	6	0	0.00	29.973 
21:35	33.2	33.2	33.2	77	26.8	3	7	270	0.00	29.973 
21:40	33.4	33.4	33.4	75	26.3	2	11	292	0.00	29.973 
21:45	33.4	33.4	33.4	74	26.0	3	11	270	0.00	29.974 
21:50	33.4	33.4	33.4	74	26.0	3	9	315	0.00	29.974 
21:55	33.4	33.4	33.4	75	26.3	2	10	292	0.00	29.974 
22:00	33.4	33.4	33.4	75	26.3	2	5	292	0.00	29.974 
22:05	33.2	33.2	33.2	75	26.2	2	9	270	0.00	29.974 
22:10	33.2	33.2	33.2	75	26.2	2	5	315	0.00	29.974 
22:15	33.2	33.2	33.2	75	26.2	2	7	338	0.00	29.983 
22:20	33.2	33.2	33.2	75	26.2	3	6	292	0.00	29.983 
22:25	33.2	33.2	33.2	75	26.2	2	4	338	0.00	29.983 
22:30	33.1	33.1	33.1	75	26.1	2	4	292	0.00	29.988 
22:35	33.1	33.1	33.1	75	26.1	3	6	315	0.00	29.988 
22:40	33.2	33.2	33.2	74	25.8	3	10	315	0.00	29.988 
22:45	33.2	33.2	33.2	74	25.8	3	11	292	0.00	29.994 
22:50	33.2	33.2	33.2	74	25.8	3	7	292	0.00	29.994 
22:55	33.2	33.2	33.2	74	25.8	3	9	292	0.00	29.994 
23:00	33.2	33.2	33.2	73	25.5	3	9	338	0.00	30.003 
23:05	33.2	33.2	33.2	74	25.8	3	6	270	0.00	30.003 
23:10	33.2	33.2	33.2	73	25.5	3	7	315	0.00	30.003 
23:15	33.2	33.2	33.2	73	25.5	3	7	292	0.00	30.006 
23:20	33.2	33.2	33.2	73	25.5	3	7	270	0.00	30.006 
23:25	33.2	33.2	33.2	73	25.5	3	7	338	0.00	30.006 
23:30	33.2	33.2	33.2	74	25.8	3	10	338	0.00	30.014 
23:35	33.1	33.1	33.1	74	25.7	2	7	315	0.00	30.014 
23:40	33.1	33.1	33.1	74	25.7	2	7	292	0.00	30.014 
23:45	33.1	33.1	33.1	74	25.7	2	5	338	0.00	30.017 
23:50	33.1	33.1	33.1	73	25.4	2	9	338	0.00	30.017 
23:55	33.1	33.1	33.1	73	25.4	3	9	292	0.00	30.017 

CoCoRaHS
IN-AL-39
A2 Web Hosting
Creative Commons License
GoDaddy
search engine by freefind advanced

loaded 2018-11-19 19:58:36 • last modified 2010-11-18 10:43:29
Privacy PolicyDisclaimer
• wx.awcolley.com is powered by PmWiki v.2002016 •
• all content (unless otherwise noted) © 2018 A W Colley